sensor_id;sensor_type;location;lat;lon;timestamp;pressure;altitude;pressure_sealevel;temperature;humidity
61484;BME280;47349;55.640;37.692;2023-03-19T00:01:54;100653.22;;;-1.94;51.51
61484;BME280;47349;55.640;37.692;2023-03-19T00:04:23;100646.81;;;-1.89;51.53
61484;BME280;47349;55.640;37.692;2023-03-19T00:06:50;100642.50;;;-1.90;51.24
61484;BME280;47349;55.640;37.692;2023-03-19T00:09:17;100649.44;;;-1.89;51.23
61484;BME280;47349;55.640;37.692;2023-03-19T00:11:45;100648.75;;;-1.92;51.00
61484;BME280;47349;55.640;37.692;2023-03-19T00:14:12;100640.09;;;-1.94;51.48
61484;BME280;47349;55.640;37.692;2023-03-19T00:16:39;100638.81;;;-2.04;51.75
61484;BME280;47349;55.640;37.692;2023-03-19T00:19:06;100637.34;;;-2.10;51.63
61484;BME280;47349;55.640;37.692;2023-03-19T00:21:34;100634.72;;;-2.10;52.00
61484;BME280;47349;55.640;37.692;2023-03-19T00:24:01;100632.84;;;-2.08;52.31
61484;BME280;47349;55.640;37.692;2023-03-19T00:26:29;100629.16;;;-2.04;51.84
61484;BME280;47349;55.640;37.692;2023-03-19T00:28:56;100629.16;;;-2.04;51.74
61484;BME280;47349;55.640;37.692;2023-03-19T00:31:24;100622.34;;;-2.08;52.39
61484;BME280;47349;55.640;37.692;2023-03-19T00:33:51;100629.25;;;-2.05;52.91
61484;BME280;47349;55.640;37.692;2023-03-19T00:36:19;100617.19;;;-2.10;52.41
61484;BME280;47349;55.640;37.692;2023-03-19T00:38:46;100620.88;;;-2.14;53.07
61484;BME280;47349;55.640;37.692;2023-03-19T00:41:13;100611.81;;;-2.25;52.93
61484;BME280;47349;55.640;37.692;2023-03-19T00:43:41;100617.56;;;-2.36;53.18
61484;BME280;47349;55.640;37.692;2023-03-19T00:46:08;100607.19;;;-2.39;54.00
61484;BME280;47349;55.640;37.692;2023-03-19T00:48:35;100606.34;;;-2.40;53.90
61484;BME280;47349;55.640;37.692;2023-03-19T00:51:03;100610.88;;;-2.43;54.17
61484;BME280;47349;55.640;37.692;2023-03-19T00:53:30;100609.19;;;-2.44;54.19
61484;BME280;47349;55.640;37.692;2023-03-19T00:55:57;100607.47;;;-2.45;54.39
61484;BME280;47349;55.640;37.692;2023-03-19T00:58:24;100608.34;;;-2.45;54.53
61484;BME280;47349;55.640;37.692;2023-03-19T01:00:52;100601.19;;;-2.41;54.73
61484;BME280;47349;55.640;37.692;2023-03-19T01:03:19;100603.72;;;-2.40;55.15
61484;BME280;47349;55.640;37.692;2023-03-19T01:05:47;100601.22;;;-2.43;54.37
61484;BME280;47349;55.640;37.692;2023-03-19T01:08:15;100605.50;;;-2.40;54.79
61484;BME280;47349;55.640;37.692;2023-03-19T01:10:42;100605.78;;;-2.46;54.28
61484;BME280;47349;55.640;37.692;2023-03-19T01:13:10;100597.75;;;-2.43;55.17
61484;BME280;47349;55.640;37.692;2023-03-19T01:15:38;100593.94;;;-2.36;54.92
61484;BME280;47349;55.640;37.692;2023-03-19T01:18:05;100593.09;;;-2.37;54.86
61484;BME280;47349;55.640;37.692;2023-03-19T01:20:33;100589.59;;;-2.37;54.96
61484;BME280;47349;55.640;37.692;2023-03-19T01:23:01;100592.38;;;-2.40;55.08
61484;BME280;47349;55.640;37.692;2023-03-19T01:25:28;100592.28;;;-2.39;55.25
61484;BME280;47349;55.640;37.692;2023-03-19T01:28:03;100588.03;;;-2.41;54.95
61484;BME280;47349;55.640;37.692;2023-03-19T01:30:30;100585.75;;;-2.49;54.96
61484;BME280;47349;55.640;37.692;2023-03-19T01:33:12;100580.66;;;-2.52;55.54
61484;BME280;47349;55.640;37.692;2023-03-19T01:35:57;100588.47;;;-2.50;55.62
61484;BME280;47349;55.640;37.692;2023-03-19T01:38:30;100583.06;;;-2.47;55.66
61484;BME280;47349;55.640;37.692;2023-03-19T01:41:01;100583.69;;;-2.42;55.76
61484;BME280;47349;55.640;37.692;2023-03-19T01:43:29;100577.38;;;-2.38;55.82
61484;BME280;47349;55.640;37.692;2023-03-19T01:46:30;100585.22;;;-2.37;55.81
61484;BME280;47349;55.640;37.692;2023-03-19T01:49:17;100579.09;;;-2.37;55.61
61484;BME280;47349;55.640;37.692;2023-03-19T01:51:50;100584.72;;;-2.45;55.68
61484;BME280;47349;55.640;37.692;2023-03-19T01:54:37;100594.50;;;-2.48;55.69
61484;BME280;47349;55.640;37.692;2023-03-19T01:57:13;100579.66;;;-2.49;56.01
61484;BME280;47349;55.640;37.692;2023-03-19T01:59:52;100574.28;;;-2.46;56.51
61484;BME280;47349;55.640;37.692;2023-03-19T02:02:38;100571.72;;;-2.48;55.47
61484;BME280;47349;55.640;37.692;2023-03-19T02:05:32;100567.31;;;-2.47;56.36
61484;BME280;47349;55.640;37.692;2023-03-19T02:08:05;100563.78;;;-2.46;55.63
61484;BME280;47349;55.640;37.692;2023-03-19T02:10:32;100566.34;;;-2.45;56.04
61484;BME280;47349;55.640;37.692;2023-03-19T02:13:00;100566.88;;;-2.38;56.80
61484;BME280;47349;55.640;37.692;2023-03-19T02:15:28;100564.88;;;-2.33;56.25
61484;BME280;47349;55.640;37.692;2023-03-19T02:17:55;100553.53;;;-2.34;56.44
61484;BME280;47349;55.640;37.692;2023-03-19T02:22:59;100559.00;;;-2.38;55.70
61484;BME280;47349;55.640;37.692;2023-03-19T02:25:33;100551.31;;;-2.41;56.22
61484;BME280;47349;55.640;37.692;2023-03-19T02:28:02;100551.44;;;-2.44;56.31
61484;BME280;47349;55.640;37.692;2023-03-19T02:30:30;100542.38;;;-2.56;56.19
61484;BME280;47349;55.640;37.692;2023-03-19T02:33:03;100552.66;;;-2.51;56.83
61484;BME280;47349;55.640;37.692;2023-03-19T02:35:31;100550.25;;;-2.56;56.68
61484;BME280;47349;55.640;37.692;2023-03-19T02:38:00;100547.75;;;-2.59;57.02
61484;BME280;47349;55.640;37.692;2023-03-19T02:40:30;100553.28;;;-2.65;57.20
61484;BME280;47349;55.640;37.692;2023-03-19T02:43:00;100559.50;;;-2.68;58.27
61484;BME280;47349;55.640;37.692;2023-03-19T02:45:27;100550.03;;;-2.70;57.93
61484;BME280;47349;55.640;37.692;2023-03-19T02:47:55;100553.00;;;-2.78;58.22
61484;BME280;47349;55.640;37.692;2023-03-19T02:50:22;100547.31;;;-2.88;58.36
61484;BME280;47349;55.640;37.692;2023-03-19T02:52:49;100537.34;;;-3.00;58.44
61484;BME280;47349;55.640;37.692;2023-03-19T02:55:18;100537.06;;;-3.13;58.65
61484;BME280;47349;55.640;37.692;2023-03-19T02:57:45;100542.44;;;-3.16;59.24
61484;BME280;47349;55.640;37.692;2023-03-19T03:00:12;100537.59;;;-3.25;59.57
61484;BME280;47349;55.640;37.692;2023-03-19T03:02:39;100532.63;;;-3.31;59.31
61484;BME280;47349;55.640;37.692;2023-03-19T03:05:07;100531.66;;;-3.28;59.52
61484;BME280;47349;55.640;37.692;2023-03-19T03:07:35;100541.88;;;-3.22;59.46
61484;BME280;47349;55.640;37.692;2023-03-19T03:10:03;100534.97;;;-3.25;59.09
61484;BME280;47349;55.640;37.692;2023-03-19T03:12:30;100541.16;;;-3.26;59.23
61484;BME280;47349;55.640;37.692;2023-03-19T03:14:58;100528.84;;;-3.24;59.38
61484;BME280;47349;55.640;37.692;2023-03-19T03:17:25;100522.59;;;-3.21;59.79
61484;BME280;47349;55.640;37.692;2023-03-19T03:19:52;100528.84;;;-3.24;59.03
61484;BME280;47349;55.640;37.692;2023-03-19T03:22:19;100524.50;;;-3.25;59.33
61484;BME280;47349;55.640;37.692;2023-03-19T03:24:47;100533.69;;;-3.35;59.56
61484;BME280;47349;55.640;37.692;2023-03-19T03:27:14;100526.09;;;-3.41;60.11
61484;BME280;47349;55.640;37.692;2023-03-19T03:29:40;100525.44;;;-3.46;60.38
61484;BME280;47349;55.640;37.692;2023-03-19T03:32:08;100526.22;;;-3.44;60.68
61484;BME280;47349;55.640;37.692;2023-03-19T03:34:34;100522.69;;;-3.43;60.46
61484;BME280;47349;55.640;37.692;2023-03-19T03:37:02;100528.78;;;-3.43;60.77
61484;BME280;47349;55.640;37.692;2023-03-19T03:39:29;100520.56;;;-3.35;61.11
61484;BME280;47349;55.640;37.692;2023-03-19T03:41:56;100525.50;;;-3.27;60.25
61484;BME280;47349;55.640;37.692;2023-03-19T03:44:23;100528.97;;;-3.27;60.17
61484;BME280;47349;55.640;37.692;2023-03-19T03:46:49;100516.72;;;-3.26;60.09
61484;BME280;47349;55.640;37.692;2023-03-19T03:49:17;100520.25;;;-3.27;60.07
61484;BME280;47349;55.640;37.692;2023-03-19T03:51:44;100517.84;;;-3.32;59.90
61484;BME280;47349;55.640;37.692;2023-03-19T03:54:11;100518.69;;;-3.31;60.32
61484;BME280;47349;55.640;37.692;2023-03-19T03:56:38;100521.38;;;-3.33;60.32
61484;BME280;47349;55.640;37.692;2023-03-19T03:59:06;100508.19;;;-3.31;60.78
61484;BME280;47349;55.640;37.692;2023-03-19T04:01:33;100514.16;;;-3.28;60.55
61484;BME280;47349;55.640;37.692;2023-03-19T04:04:00;100513.81;;;-3.20;60.73
61484;BME280;47349;55.640;37.692;2023-03-19T04:06:27;100511.81;;;-3.15;60.48
61484;BME280;47349;55.640;37.692;2023-03-19T04:09:17;100514.94;;;-3.26;60.29
61484;BME280;47349;55.640;37.692;2023-03-19T04:11:45;100509.03;;;-3.31;60.70
61484;BME280;47349;55.640;37.692;2023-03-19T04:14:12;100510.69;;;-3.28;60.41
61484;BME280;47349;55.640;37.692;2023-03-19T04:16:39;100504.38;;;-3.24;60.28
61484;BME280;47349;55.640;37.692;2023-03-19T04:19:06;100506.00;;;-3.22;60.02
61484;BME280;47349;55.640;37.692;2023-03-19T04:21:33;100501.53;;;-3.20;60.42
61484;BME280;47349;55.640;37.692;2023-03-19T04:24:01;100499.06;;;-3.23;59.67
61484;BME280;47349;55.640;37.692;2023-03-19T04:26:28;100489.03;;;-3.13;59.95
61484;BME280;47349;55.640;37.692;2023-03-19T04:28:56;100486.84;;;-3.03;60.02
61484;BME280;47349;55.640;37.692;2023-03-19T04:31:24;100485.69;;;-2.98;59.64
61484;BME280;47349;55.640;37.692;2023-03-19T04:33:51;100498.81;;;-2.98;59.39
61484;BME280;47349;55.640;37.692;2023-03-19T04:36:18;100492.66;;;-2.97;59.30
61484;BME280;47349;55.640;37.692;2023-03-19T04:38:46;100491.72;;;-2.96;59.07
61484;BME280;47349;55.640;37.692;2023-03-19T04:41:14;100492.72;;;-2.98;59.32
61484;BME280;47349;55.640;37.692;2023-03-19T04:43:58;100494.56;;;-3.00;59.54
61484;BME280;47349;55.640;37.692;2023-03-19T04:46:27;100494.13;;;-2.91;59.54
61484;BME280;47349;55.640;37.692;2023-03-19T04:48:54;100490.56;;;-2.90;59.47
61484;BME280;47349;55.640;37.692;2023-03-19T04:51:22;100487.75;;;-2.86;59.21
61484;BME280;47349;55.640;37.692;2023-03-19T04:53:50;100486.47;;;-2.77;59.22
61484;BME280;47349;55.640;37.692;2023-03-19T04:56:17;100488.03;;;-2.73;59.01
61484;BME280;47349;55.640;37.692;2023-03-19T04:58:44;100486.91;;;-2.67;59.16
61484;BME280;47349;55.640;37.692;2023-03-19T05:01:11;100486.75;;;-2.64;59.09
61484;BME280;47349;55.640;37.692;2023-03-19T05:04:03;100486.47;;;-2.58;59.56
61484;BME280;47349;55.640;37.692;2023-03-19T05:06:33;100492.44;;;-2.54;58.87
61484;BME280;47349;55.640;37.692;2023-03-19T05:09:00;100487.94;;;-2.52;59.38
61484;BME280;47349;55.640;37.692;2023-03-19T05:11:27;100488.25;;;-2.59;59.39
61484;BME280;47349;55.640;37.692;2023-03-19T05:14:08;100487.25;;;-2.56;60.02
61484;BME280;47349;55.640;37.692;2023-03-19T05:16:58;100491.41;;;-2.52;60.33
61484;BME280;47349;55.640;37.692;2023-03-19T05:19:31;100495.59;;;-2.48;59.88
61484;BME280;47349;55.640;37.692;2023-03-19T05:21:58;100487.66;;;-2.46;59.66
61484;BME280;47349;55.640;37.692;2023-03-19T05:24:46;100486.25;;;-2.53;59.88
61484;BME280;47349;55.640;37.692;2023-03-19T05:27:30;100483.84;;;-2.58;59.55
61484;BME280;47349;55.640;37.692;2023-03-19T05:30:18;100480.22;;;-2.55;60.08
61484;BME280;47349;55.640;37.692;2023-03-19T05:33:17;100472.13;;;-2.51;60.15
61484;BME280;47349;55.640;37.692;2023-03-19T05:35:58;100467.97;;;-2.38;59.99
61484;BME280;47349;55.640;37.692;2023-03-19T05:38:49;100461.44;;;-2.29;59.85
61484;BME280;47349;55.640;37.692;2023-03-19T05:41:26;100464.06;;;-2.29;59.50
61484;BME280;47349;55.640;37.692;2023-03-19T05:43:58;100455.13;;;-2.25;59.83
61484;BME280;47349;55.640;37.692;2023-03-19T05:46:40;100451.91;;;-2.13;59.57
61484;BME280;47349;55.640;37.692;2023-03-19T05:49:10;100456.00;;;-2.07;60.04
61484;BME280;47349;55.640;37.692;2023-03-19T05:51:37;100448.03;;;-2.05;59.31
61484;BME280;47349;55.640;37.692;2023-03-19T05:54:06;100448.03;;;-2.05;59.47
61484;BME280;47349;55.640;37.692;2023-03-19T05:56:48;100448.50;;;-1.97;59.56
61484;BME280;47349;55.640;37.692;2023-03-19T05:59:38;100447.47;;;-1.95;59.76
61484;BME280;47349;55.640;37.692;2023-03-19T06:02:29;100433.63;;;-1.98;59.40
61484;BME280;47349;55.640;37.692;2023-03-19T06:05:12;100440.28;;;-1.91;59.98
61484;BME280;47349;55.640;37.692;2023-03-19T06:07:39;100437.44;;;-1.87;59.39
61484;BME280;47349;55.640;37.692;2023-03-19T06:10:11;100427.16;;;-1.74;59.77
61484;BME280;47349;55.640;37.692;2023-03-19T06:12:39;100424.44;;;-1.72;59.39
61484;BME280;47349;55.640;37.692;2023-03-19T06:15:32;100419.31;;;-1.75;58.95
61484;BME280;47349;55.640;37.692;2023-03-19T06:18:20;100413.69;;;-1.68;59.29
61484;BME280;47349;55.640;37.692;2023-03-19T06:20:47;100421.75;;;-1.55;58.91
61484;BME280;47349;55.640;37.692;2023-03-19T06:23:16;100409.91;;;-1.46;58.45
61484;BME280;47349;55.640;37.692;2023-03-19T06:25:43;100410.69;;;-1.44;58.58
61484;BME280;47349;55.640;37.692;2023-03-19T06:28:12;100409.91;;;-1.46;58.72
61484;BME280;47349;55.640;37.692;2023-03-19T06:30:42;100407.03;;;-1.42;58.81
61484;BME280;47349;55.640;37.692;2023-03-19T06:33:30;100401.75;;;-1.58;59.35
61484;BME280;47349;55.640;37.692;2023-03-19T06:35:59;100410.25;;;-1.52;59.48
61484;BME280;47349;55.640;37.692;2023-03-19T06:38:29;100398.03;;;-1.53;59.61
61484;BME280;47349;55.640;37.692;2023-03-19T06:40:57;100398.81;;;-1.36;59.32
61484;BME280;47349;55.640;37.692;2023-03-19T06:43:26;100397.47;;;-1.27;58.83
61484;BME280;47349;55.640;37.692;2023-03-19T06:46:07;100393.16;;;-1.28;58.80
61484;BME280;47349;55.640;37.692;2023-03-19T06:48:37;100392.56;;;-1.33;58.98
61484;BME280;47349;55.640;37.692;2023-03-19T06:51:04;100389.69;;;-1.28;58.96
61484;BME280;47349;55.640;37.692;2023-03-19T06:53:32;100387.75;;;-1.25;59.45
61484;BME280;47349;55.640;37.692;2023-03-19T06:55:59;100387.25;;;-1.16;59.68
61484;BME280;47349;55.640;37.692;2023-03-19T06:58:26;100390.13;;;-1.05;58.85
61484;BME280;47349;55.640;37.692;2023-03-19T07:00:55;100381.88;;;-0.98;58.89
61484;BME280;47349;55.640;37.692;2023-03-19T07:03:23;100383.50;;;-0.96;58.79
61484;BME280;47349;55.640;37.692;2023-03-19T07:05:50;100382.13;;;-1.03;58.77
61484;BME280;47349;55.640;37.692;2023-03-19T07:08:17;100382.47;;;-0.93;59.10
61484;BME280;47349;55.640;37.692;2023-03-19T07:10:45;100388.75;;;-0.80;58.34
61484;BME280;47349;55.640;37.692;2023-03-19T07:13:12;100387.06;;;-0.81;58.17
61484;BME280;47349;55.640;37.692;2023-03-19T07:15:39;100377.47;;;-0.82;58.54
61484;BME280;47349;55.640;37.692;2023-03-19T07:18:06;100377.88;;;-0.74;58.72
61484;BME280;47349;55.640;37.692;2023-03-19T07:20:33;100375.75;;;-0.67;58.47
61484;BME280;47349;55.640;37.692;2023-03-19T07:23:01;100368.44;;;-0.62;58.36
61484;BME280;47349;55.640;37.692;2023-03-19T07:25:28;100377.00;;;-0.59;57.95
61484;BME280;47349;55.640;37.692;2023-03-19T07:27:55;100376.09;;;-0.58;57.84
61484;BME280;47349;55.640;37.692;2023-03-19T07:30:32;100373.09;;;-0.52;58.11
61484;BME280;47349;55.640;37.692;2023-03-19T07:32:59;100359.66;;;-0.47;58.16
61484;BME280;47349;55.640;37.692;2023-03-19T07:35:27;100367.56;;;-0.47;57.27
61484;BME280;47349;55.640;37.692;2023-03-19T07:37:56;100372.47;;;-0.41;57.60
61484;BME280;47349;55.640;37.692;2023-03-19T07:40:25;100362.78;;;-0.40;57.94
61484;BME280;47349;55.640;37.692;2023-03-19T07:42:52;100363.88;;;-0.44;57.97
61484;BME280;47349;55.640;37.692;2023-03-19T07:45:19;100359.56;;;-0.45;57.33
61484;BME280;47349;55.640;37.692;2023-03-19T07:47:48;100368.03;;;-0.40;58.06
61484;BME280;47349;55.640;37.692;2023-03-19T07:50:16;100364.72;;;-0.44;58.16
61484;BME280;47349;55.640;37.692;2023-03-19T07:52:46;100363.88;;;-0.44;58.39
61484;BME280;47349;55.640;37.692;2023-03-19T07:55:13;100364.41;;;-0.54;58.29
61484;BME280;47349;55.640;37.692;2023-03-19T07:57:41;100357.09;;;-0.48;58.91
61484;BME280;47349;55.640;37.692;2023-03-19T08:00:08;100355.97;;;-0.44;58.18
61484;BME280;47349;55.640;37.692;2023-03-19T08:02:39;100362.59;;;-0.37;58.03
61484;BME280;47349;55.640;37.692;2023-03-19T08:05:07;100354.34;;;-0.31;58.56
61484;BME280;47349;55.640;37.692;2023-03-19T08:07:35;100351.16;;;-0.22;58.09
61484;BME280;47349;55.640;37.692;2023-03-19T08:10:03;100355.38;;;-0.19;57.51
61484;BME280;47349;55.640;37.692;2023-03-19T08:12:30;100352.50;;;-0.01;57.99
61484;BME280;47349;55.640;37.692;2023-03-19T08:14:58;100344.44;;;0.17;57.60
61484;BME280;47349;55.640;37.692;2023-03-19T08:17:25;100346.50;;;0.12;56.44
61484;BME280;47349;55.640;37.692;2023-03-19T08:19:52;100348.19;;;0.13;57.09
61484;BME280;47349;55.640;37.692;2023-03-19T08:22:19;100337.88;;;0.10;57.42
61484;BME280;47349;55.640;37.692;2023-03-19T08:24:47;100331.66;;;0.11;57.15
61484;BME280;47349;55.640;37.692;2023-03-19T08:27:14;100334.84;;;0.30;57.59
61484;BME280;47349;55.640;37.692;2023-03-19T08:29:41;100318.75;;;0.35;56.87
61484;BME280;47349;55.640;37.692;2023-03-19T08:32:08;100322.22;;;0.35;56.87
61484;BME280;47349;55.640;37.692;2023-03-19T08:34:35;100318.09;;;0.17;56.38
61484;BME280;47349;55.640;37.692;2023-03-19T08:37:02;100316.00;;;0.22;57.30
61484;BME280;47349;55.640;37.692;2023-03-19T08:39:29;100309.13;;;0.34;57.46
61484;BME280;47349;55.640;37.692;2023-03-19T08:41:57;100320.44;;;0.50;57.73
61484;BME280;47349;55.640;37.692;2023-03-19T08:44:24;100308.06;;;0.65;57.20
61484;BME280;47349;55.640;37.692;2023-03-19T08:46:51;100302.00;;;0.63;56.86
61484;BME280;47349;55.640;37.692;2023-03-19T08:49:18;100299.63;;;0.72;57.53
61484;BME280;47349;55.640;37.692;2023-03-19T08:51:45;100284.28;;;0.79;56.97
61484;BME280;47349;55.640;37.692;2023-03-19T08:54:12;100291.06;;;0.83;57.75
61484;BME280;47349;55.640;37.692;2023-03-19T08:56:39;100285.38;;;0.89;56.96
61484;BME280;47349;55.640;37.692;2023-03-19T08:59:06;100288.25;;;0.99;56.55
61484;BME280;47349;55.640;37.692;2023-03-19T09:01:34;100275.50;;;1.06;56.19
61484;BME280;47349;55.640;37.692;2023-03-19T09:04:01;100278.69;;;1.11;55.78
61484;BME280;47349;55.640;37.692;2023-03-19T09:06:28;100276.41;;;1.19;55.61
61484;BME280;47349;55.640;37.692;2023-03-19T09:09:35;100264.81;;;1.21;55.87
61484;BME280;47349;55.640;37.692;2023-03-19T09:12:17;100262.25;;;1.20;56.48
61484;BME280;47349;55.640;37.692;2023-03-19T09:15:01;100259.41;;;1.23;56.20
61484;BME280;47349;55.640;37.692;2023-03-19T09:18:06;100252.03;;;1.28;56.41
61484;BME280;47349;55.640;37.692;2023-03-19T09:20:48;100241.03;;;1.34;56.87
61484;BME280;47349;55.640;37.692;2023-03-19T09:23:19;100238.09;;;1.39;56.01
61484;BME280;47349;55.640;37.692;2023-03-19T09:26:04;100240.44;;;1.43;56.50
61484;BME280;47349;55.640;37.692;2023-03-19T09:28:46;100236.81;;;1.44;57.01
61484;BME280;47349;55.640;37.692;2023-03-19T09:31:30;100234.09;;;1.46;56.23
61484;BME280;47349;55.640;37.692;2023-03-19T09:34:02;100236.50;;;1.49;56.54
61484;BME280;47349;55.640;37.692;2023-03-19T09:36:29;100230.19;;;1.51;56.64
61484;BME280;47349;55.640;37.692;2023-03-19T09:38:56;100228.91;;;1.57;56.68
61484;BME280;47349;55.640;37.692;2023-03-19T09:51:52;100223.13;;;1.65;55.98
61484;BME280;47349;55.640;37.692;2023-03-19T09:56:51;100218.97;;;1.86;55.78
61484;BME280;47349;55.640;37.692;2023-03-19T09:59:22;100209.03;;;1.90;55.85
61484;BME280;47349;55.640;37.692;2023-03-19T10:10:12;100206.47;;;2.01;54.89
61484;BME280;47349;55.640;37.692;2023-03-19T10:12:44;100203.19;;;1.97;54.54
61484;BME280;47349;55.640;37.692;2023-03-19T10:15:28;100193.34;;;2.12;54.48
61484;BME280;47349;55.640;37.692;2023-03-19T10:18:02;100196.94;;;2.24;54.88
61484;BME280;47349;55.640;37.692;2023-03-19T10:21:01;100187.81;;;2.28;54.91
61484;BME280;47349;55.640;37.692;2023-03-19T10:26:01;100188.09;;;2.36;54.80
61484;BME280;47349;55.640;37.692;2023-03-19T10:28:29;100185.22;;;2.39;55.68
61484;BME280;47349;55.640;37.692;2023-03-19T10:31:10;100178.31;;;2.49;54.31
61484;BME280;47349;55.640;37.692;2023-03-19T10:33:55;100188.06;;;2.49;54.34
61484;BME280;47349;55.640;37.692;2023-03-19T10:36:30;100184.56;;;2.48;54.46
61484;BME280;47349;55.640;37.692;2023-03-19T10:38:59;100181.47;;;2.54;54.48
61484;BME280;47349;55.640;37.692;2023-03-19T10:44:00;100180.84;;;2.51;54.45
61484;BME280;47349;55.640;37.692;2023-03-19T10:46:35;100171.69;;;2.44;54.24
61484;BME280;47349;55.640;37.692;2023-03-19T10:49:03;100176.34;;;2.40;54.38
61484;BME280;47349;55.640;37.692;2023-03-19T10:51:30;100171.69;;;2.44;54.56
61484;BME280;47349;55.640;37.692;2023-03-19T10:53:58;100173.06;;;2.61;54.74
61484;BME280;47349;55.640;37.692;2023-03-19T10:56:26;100170.72;;;2.69;54.11
61484;BME280;47349;55.640;37.692;2023-03-19T11:01:32;100165.66;;;3.01;53.54
61484;BME280;47349;55.640;37.692;2023-03-19T11:04:18;100162.78;;;3.04;53.01
61484;BME280;47349;55.640;37.692;2023-03-19T11:06:55;100158.31;;;3.04;52.41
61484;BME280;47349;55.640;37.692;2023-03-19T11:09:39;100165.31;;;3.05;53.83
61484;BME280;47349;55.640;37.692;2023-03-19T11:12:18;100159.19;;;3.05;53.52
61484;BME280;47349;55.640;37.692;2023-03-19T11:14:47;100152.31;;;3.14;53.79
61484;BME280;47349;55.640;37.692;2023-03-19T11:19:49;100155.09;;;3.12;52.95
61484;BME280;47349;55.640;37.692;2023-03-19T11:22:25;100144.84;;;3.07;54.03
61484;BME280;47349;55.640;37.692;2023-03-19T11:24:55;100139.78;;;3.04;54.26
61484;BME280;47349;55.640;37.692;2023-03-19T11:27:26;100138.44;;;2.99;54.31
61484;BME280;47349;55.640;37.692;2023-03-19T11:29:54;100130.91;;;3.05;54.94
61484;BME280;47349;55.640;37.692;2023-03-19T11:40:01;100119.13;;;3.21;54.94
61484;BME280;47349;55.640;37.692;2023-03-19T11:55:30;100107.47;;;4.34;52.74
61484;BME280;47349;55.640;37.692;2023-03-19T12:00:45;100097.44;;;4.90;51.74
61484;BME280;47349;55.640;37.692;2023-03-19T12:08:26;100094.81;;;5.73;48.29
61484;BME280;47349;55.640;37.692;2023-03-19T12:18:42;100071.16;;;6.78;46.34
61484;BME280;47349;55.640;37.692;2023-03-19T12:24:26;100067.72;;;7.14;45.46
61484;BME280;47349;55.640;37.692;2023-03-19T12:32:09;100052.28;;;7.18;44.65
61484;BME280;47349;55.640;37.692;2023-03-19T12:34:47;100043.63;;;7.06;44.88
61484;BME280;47349;55.640;37.692;2023-03-19T12:37:23;100043.41;;;7.27;45.11
61484;BME280;47349;55.640;37.692;2023-03-19T12:42:41;100032.50;;;7.48;44.61
61484;BME280;47349;55.640;37.692;2023-03-19T12:45:15;100036.69;;;7.23;44.70
61484;BME280;47349;55.640;37.692;2023-03-19T12:47:48;100030.22;;;7.26;45.31
61484;BME280;47349;55.640;37.692;2023-03-19T12:50:16;100019.66;;;7.34;44.45
61484;BME280;47349;55.640;37.692;2023-03-19T12:52:49;100028.28;;;7.55;44.96
61484;BME280;47349;55.640;37.692;2023-03-19T12:55:18;100023.63;;;7.85;47.45
61484;BME280;47349;55.640;37.692;2023-03-19T13:00:33;100007.84;;;7.91;43.66
61484;BME280;47349;55.640;37.692;2023-03-19T13:06:05;99998.84;;;8.10;43.73
61484;BME280;47349;55.640;37.692;2023-03-19T13:08:36;99989.25;;;8.17;43.92
61484;BME280;47349;55.640;37.692;2023-03-19T13:11:09;99993.56;;;7.83;43.60
61484;BME280;47349;55.640;37.692;2023-03-19T13:13:44;99991.22;;;7.97;44.00
61484;BME280;47349;55.640;37.692;2023-03-19T13:16:32;99989.94;;;7.84;43.32
61484;BME280;47349;55.640;37.692;2023-03-19T13:19:11;99980.28;;;7.73;43.35
61484;BME280;47349;55.640;37.692;2023-03-19T13:21:41;99977.94;;;7.70;42.87
61484;BME280;47349;55.640;37.692;2023-03-19T13:24:52;99984.16;;;7.61;44.51
61484;BME280;47349;55.640;37.692;2023-03-19T13:27:03;99972.00;;;7.76;43.25
61484;BME280;47349;55.640;37.692;2023-03-19T13:29:32;99981.28;;;7.72;42.97
61484;BME280;47349;55.640;37.692;2023-03-19T13:32:06;99971.94;;;7.58;43.06
61484;BME280;47349;55.640;37.692;2023-03-19T13:34:35;99957.22;;;7.54;43.31
61484;BME280;47349;55.640;37.692;2023-03-19T13:39:35;99957.94;;;7.56;43.56
61484;BME280;47349;55.640;37.692;2023-03-19T13:44:34;99961.31;;;7.76;43.29
61484;BME280;47349;55.640;37.692;2023-03-19T13:50:19;99958.75;;;7.84;43.03
61484;BME280;47349;55.640;37.692;2023-03-19T13:58:17;99946.78;;;7.88;42.57
61484;BME280;47349;55.640;37.692;2023-03-19T14:01:05;99946.06;;;7.86;42.20
61484;BME280;47349;55.640;37.692;2023-03-19T14:03:50;99942.47;;;7.78;42.81
61484;BME280;47349;55.640;37.692;2023-03-19T14:08:56;99939.75;;;7.87;42.96
61484;BME280;47349;55.640;37.692;2023-03-19T14:11:23;99942.53;;;7.68;42.24
61484;BME280;47349;55.640;37.692;2023-03-19T14:13:54;99934.81;;;7.47;42.96
61484;BME280;47349;55.640;37.692;2023-03-19T14:16:23;99929.66;;;7.45;43.59
61484;BME280;47349;55.640;37.692;2023-03-19T14:18:55;99938.16;;;7.49;43.65
61484;BME280;47349;55.640;37.692;2023-03-19T14:21:32;99928.44;;;7.40;43.60
61484;BME280;47349;55.640;37.692;2023-03-19T14:27:14;99919.28;;;7.15;44.68
61484;BME280;47349;55.640;37.692;2023-03-19T14:30:07;99925.44;;;7.15;45.82
61484;BME280;47349;55.640;37.692;2023-03-19T14:32:36;99923.09;;;7.12;45.10
61484;BME280;47349;55.640;37.692;2023-03-19T14:35:10;99917.88;;;7.20;45.44
61484;BME280;47349;55.640;37.692;2023-03-19T14:37:45;99912.00;;;7.17;43.96
61484;BME280;47349;55.640;37.692;2023-03-19T14:40:16;99909.44;;;7.15;43.76
61484;BME280;47349;55.640;37.692;2023-03-19T14:53:12;99913.16;;;7.05;44.41
61484;BME280;47349;55.640;37.692;2023-03-19T14:55:45;99906.19;;;6.94;45.13
61484;BME280;47349;55.640;37.692;2023-03-19T14:58:13;99906.03;;;6.95;44.36
61484;BME280;47349;55.640;37.692;2023-03-19T15:00:44;99906.84;;;6.78;45.00
61484;BME280;47349;55.640;37.692;2023-03-19T15:05:58;99900.16;;;6.64;45.04
61484;BME280;47349;55.640;37.692;2023-03-19T15:08:27;99915.00;;;6.57;45.09